sensor_id;sensor_type;location;lat;lon;timestamp;pressure;altitude;pressure_sealevel;temperature;humidity
50364;BME280;36272;59.400;17.982;2023-04-23T00:00:18;100626.09;;;10.73;52.45
50364;BME280;36272;59.400;17.982;2023-04-23T00:05:21;100601.91;;;10.67;52.66
50364;BME280;36272;59.400;17.982;2023-04-23T00:10:26;100600.72;;;10.63;52.91
50364;BME280;36272;59.400;17.982;2023-04-23T00:15:28;100605.09;;;10.58;53.13
50364;BME280;36272;59.400;17.982;2023-04-23T00:20:30;100604.13;;;10.52;53.53
50364;BME280;36272;59.400;17.982;2023-04-23T00:25:32;100598.28;;;10.43;53.47
50364;BME280;36272;59.400;17.982;2023-04-23T00:30:33;100594.63;;;10.37;53.94
50364;BME280;36272;59.400;17.982;2023-04-23T00:35:35;100580.28;;;10.32;53.89
50364;BME280;36272;59.400;17.982;2023-04-23T00:40:37;100584.66;;;10.26;54.06
50364;BME280;36272;59.400;17.982;2023-04-23T00:45:39;100584.34;;;10.16;54.37
50364;BME280;36272;59.400;17.982;2023-04-23T00:50:41;100571.28;;;10.07;54.20
50364;BME280;36272;59.400;17.982;2023-04-23T00:55:42;100574.84;;;10.01;54.46
50364;BME280;36272;59.400;17.982;2023-04-23T01:00:45;100550.50;;;9.91;54.85
50364;BME280;36272;59.400;17.982;2023-04-23T01:05:49;100564.31;;;9.88;54.81
50364;BME280;36272;59.400;17.982;2023-04-23T01:10:52;100557.63;;;9.78;55.31
50364;BME280;36272;59.400;17.982;2023-04-23T01:15:55;100569.19;;;9.72;55.24
50364;BME280;36272;59.400;17.982;2023-04-23T01:20:57;100563.91;;;9.65;55.36
50364;BME280;36272;59.400;17.982;2023-04-23T01:25:59;100569.28;;;9.59;55.64
50364;BME280;36272;59.400;17.982;2023-04-23T01:31:01;100564.81;;;9.52;55.55
50364;BME280;36272;59.400;17.982;2023-04-23T01:36:04;100560.38;;;9.46;56.12
50364;BME280;36272;59.400;17.982;2023-04-23T01:41:06;100554.28;;;9.39;56.09
50364;BME280;36272;59.400;17.982;2023-04-23T01:46:08;100551.25;;;9.29;56.54
50364;BME280;36272;59.400;17.982;2023-04-23T01:51:10;100550.72;;;9.20;56.63
50364;BME280;36272;59.400;17.982;2023-04-23T01:56:14;100530.28;;;9.07;57.02
50364;BME280;36272;59.400;17.982;2023-04-23T02:01:16;100545.91;;;9.03;57.12
50364;BME280;36272;59.400;17.982;2023-04-23T02:06:18;100557.22;;;8.99;57.25
50364;BME280;36272;59.400;17.982;2023-04-23T02:11:19;100579.19;;;8.94;58.00
50364;BME280;36272;59.400;17.982;2023-04-23T02:16:21;100588.66;;;8.90;58.26
50364;BME280;36272;59.400;17.982;2023-04-23T02:21:24;100592.59;;;8.87;58.47
50364;BME280;36272;59.400;17.982;2023-04-23T02:26:27;100593.00;;;8.84;58.56
50364;BME280;36272;59.400;17.982;2023-04-23T02:31:30;100599.00;;;8.80;58.84
50364;BME280;36272;59.400;17.982;2023-04-23T02:36:31;100594.09;;;8.76;59.09
50364;BME280;36272;59.400;17.982;2023-04-23T02:41:33;100597.38;;;8.72;59.31
50364;BME280;36272;59.400;17.982;2023-04-23T02:46:35;100586.09;;;8.70;59.23
50364;BME280;36272;59.400;17.982;2023-04-23T02:51:37;100603.78;;;8.64;59.29
50364;BME280;36272;59.400;17.982;2023-04-23T02:56:39;100595.59;;;8.59;59.49
50364;BME280;36272;59.400;17.982;2023-04-23T03:01:41;100580.25;;;8.54;59.60
50364;BME280;36272;59.400;17.982;2023-04-23T03:06:42;100571.84;;;8.44;59.76
50364;BME280;36272;59.400;17.982;2023-04-23T03:11:44;100561.41;;;8.36;59.83
50364;BME280;36272;59.400;17.982;2023-04-23T03:16:46;100564.72;;;8.31;60.12
50364;BME280;36272;59.400;17.982;2023-04-23T03:21:50;100559.38;;;8.24;60.52
50364;BME280;36272;59.400;17.982;2023-04-23T03:26:52;100559.44;;;8.17;60.67
50364;BME280;36272;59.400;17.982;2023-04-23T03:31:53;100555.75;;;8.12;60.68
50364;BME280;36272;59.400;17.982;2023-04-23T03:36:55;100571.13;;;8.10;60.64
50364;BME280;36272;59.400;17.982;2023-04-23T03:41:57;100565.81;;;8.03;60.70
50364;BME280;36272;59.400;17.982;2023-04-23T03:46:58;100569.72;;;8.00;61.01
50364;BME280;36272;59.400;17.982;2023-04-23T03:52:00;100565.19;;;8.01;61.15
50364;BME280;36272;59.400;17.982;2023-04-23T03:57:02;100565.19;;;8.01;61.26
50364;BME280;36272;59.400;17.982;2023-04-23T04:02:04;100554.97;;;8.04;61.40
50364;BME280;36272;59.400;17.982;2023-04-23T04:07:06;100576.03;;;8.06;61.27
50364;BME280;36272;59.400;17.982;2023-04-23T04:12:08;100575.84;;;8.08;61.41
50364;BME280;36272;59.400;17.982;2023-04-23T04:17:09;100583.22;;;8.12;61.82
50364;BME280;36272;59.400;17.982;2023-04-23T04:22:15;100570.09;;;8.17;62.03
50364;BME280;36272;59.400;17.982;2023-04-23T04:27:17;100558.16;;;8.27;62.35
50364;BME280;36272;59.400;17.982;2023-04-23T04:32:18;100544.63;;;8.35;62.73
50364;BME280;36272;59.400;17.982;2023-04-23T04:37:20;100551.13;;;8.46;62.72
50364;BME280;36272;59.400;17.982;2023-04-23T04:42:22;100547.81;;;8.57;62.74
50364;BME280;36272;59.400;17.982;2023-04-23T04:47:24;100537.69;;;8.73;63.05
50364;BME280;36272;59.400;17.982;2023-04-23T04:52:26;100527.97;;;8.85;62.75
50364;BME280;36272;59.400;17.982;2023-04-23T04:57:28;100540.19;;;9.00;62.84
50364;BME280;36272;59.400;17.982;2023-04-23T05:02:29;100532.91;;;9.14;62.62
50364;BME280;36272;59.400;17.982;2023-04-23T05:07:31;100540.59;;;9.29;62.64
50364;BME280;36272;59.400;17.982;2023-04-23T05:12:33;100536.78;;;9.43;62.54
50364;BME280;36272;59.400;17.982;2023-04-23T05:17:35;100536.00;;;9.61;62.34
50364;BME280;36272;59.400;17.982;2023-04-23T05:22:39;100522.28;;;9.76;62.09
50364;BME280;36272;59.400;17.982;2023-04-23T05:27:44;100524.97;;;9.95;62.09
50364;BME280;36272;59.400;17.982;2023-04-23T05:32:52;100538.34;;;10.14;61.80
50364;BME280;36272;59.400;17.982;2023-04-23T05:37:55;100508.41;;;10.23;61.63
50364;BME280;36272;59.400;17.982;2023-04-23T05:42:58;100515.22;;;10.38;61.31
50364;BME280;36272;59.400;17.982;2023-04-23T05:47:59;100518.56;;;10.52;61.01
50364;BME280;36272;59.400;17.982;2023-04-23T05:53:07;100502.44;;;10.59;61.11
50364;BME280;36272;59.400;17.982;2023-04-23T05:58:11;100520.16;;;10.71;60.86
50364;BME280;36272;59.400;17.982;2023-04-23T06:03:15;100520.97;;;10.84;60.54
50364;BME280;36272;59.400;17.982;2023-04-23T06:08:17;100520.78;;;10.97;60.55
50364;BME280;36272;59.400;17.982;2023-04-23T06:13:23;100505.72;;;11.27;59.43
50364;BME280;36272;59.400;17.982;2023-04-23T06:18:24;100521.91;;;11.20;59.87
50364;BME280;36272;59.400;17.982;2023-04-23T06:23:26;100516.88;;;11.36;59.71
50364;BME280;36272;59.400;17.982;2023-04-23T06:28:28;100519.47;;;11.54;59.98
50364;BME280;36272;59.400;17.982;2023-04-23T06:33:29;100514.53;;;11.75;59.44
50364;BME280;36272;59.400;17.982;2023-04-23T06:38:31;100510.00;;;11.99;59.31
50364;BME280;36272;59.400;17.982;2023-04-23T06:43:35;100494.66;;;12.24;59.08
50364;BME280;36272;59.400;17.982;2023-04-23T06:48:37;100509.28;;;12.45;58.53
50364;BME280;36272;59.400;17.982;2023-04-23T06:53:39;100503.38;;;12.60;58.32
50364;BME280;36272;59.400;17.982;2023-04-23T06:58:40;100501.31;;;12.79;57.89
50364;BME280;36272;59.400;17.982;2023-04-23T07:03:42;100492.72;;;12.94;58.00
50364;BME280;36272;59.400;17.982;2023-04-23T07:08:49;100493.69;;;13.05;57.47
50364;BME280;36272;59.400;17.982;2023-04-23T07:13:51;100488.22;;;13.17;57.41
50364;BME280;36272;59.400;17.982;2023-04-23T07:18:53;100492.78;;;13.33;56.83
50364;BME280;36272;59.400;17.982;2023-04-23T07:23:56;100470.53;;;13.55;56.66
50364;BME280;36272;59.400;17.982;2023-04-23T07:28:58;100473.44;;;13.71;56.11
50364;BME280;36272;59.400;17.982;2023-04-23T07:34:01;100465.25;;;13.82;55.80
50364;BME280;36272;59.400;17.982;2023-04-23T07:39:03;100459.94;;;13.88;55.87
50364;BME280;36272;59.400;17.982;2023-04-23T07:44:06;100473.38;;;13.88;55.94
50364;BME280;36272;59.400;17.982;2023-04-23T07:49:07;100454.81;;;13.86;55.76
50364;BME280;36272;59.400;17.982;2023-04-23T07:54:09;100453.50;;;13.89;55.34
50364;BME280;36272;59.400;17.982;2023-04-23T07:59:17;100424.19;;;13.87;55.72
50364;BME280;36272;59.400;17.982;2023-04-23T08:04:51;100423.22;;;13.98;55.50
50364;BME280;36272;59.400;17.982;2023-04-23T08:16:11;100400.66;;;14.27;54.57
50364;BME280;36272;59.400;17.982;2023-04-23T08:21:30;100400.34;;;14.51;53.81
50364;BME280;36272;59.400;17.982;2023-04-23T08:26:34;100405.22;;;14.86;53.75
50364;BME280;36272;59.400;17.982;2023-04-23T08:31:54;100385.25;;;15.25;52.61
50364;BME280;36272;59.400;17.982;2023-04-23T08:36:58;100382.22;;;15.70;51.79
50364;BME280;36272;59.400;17.982;2023-04-23T08:42:09;100380.44;;;16.01;51.02
50364;BME280;36272;59.400;17.982;2023-04-23T08:47:19;100360.78;;;16.22;50.50
50364;BME280;36272;59.400;17.982;2023-04-23T08:52:26;100364.28;;;16.32;50.41
50364;BME280;36272;59.400;17.982;2023-04-23T08:57:30;100374.56;;;16.46;50.10
50364;BME280;36272;59.400;17.982;2023-04-23T09:02:33;100363.22;;;16.64;49.98
50364;BME280;36272;59.400;17.982;2023-04-23T09:07:35;100365.63;;;16.82;49.58
50364;BME280;36272;59.400;17.982;2023-04-23T09:12:40;100356.41;;;16.93;49.39
50364;BME280;36272;59.400;17.982;2023-04-23T09:17:47;100346.97;;;17.01;48.99
50364;BME280;36272;59.400;17.982;2023-04-23T09:23:06;100350.47;;;17.06;48.58
50364;BME280;36272;59.400;17.982;2023-04-23T09:28:08;100363.16;;;17.06;48.51
50364;BME280;36272;59.400;17.982;2023-04-23T09:33:11;100361.81;;;17.14;48.29
50364;BME280;36272;59.400;17.982;2023-04-23T09:38:13;100361.50;;;17.26;48.32
50364;BME280;36272;59.400;17.982;2023-04-23T09:43:15;100353.88;;;17.43;48.19
50364;BME280;36272;59.400;17.982;2023-04-23T09:48:17;100340.28;;;17.53;47.94
50364;BME280;36272;59.400;17.982;2023-04-23T09:53:19;100322.63;;;17.72;46.80
50364;BME280;36272;59.400;17.982;2023-04-23T09:58:23;100319.28;;;17.85;45.88
50364;BME280;36272;59.400;17.982;2023-04-23T10:03:30;100330.88;;;17.91;45.19
50364;BME280;36272;59.400;17.982;2023-04-23T10:08:32;100330.31;;;17.99;45.49
50364;BME280;36272;59.400;17.982;2023-04-23T10:13:35;100314.53;;;18.11;44.55
50364;BME280;36272;59.400;17.982;2023-04-23T10:18:37;100320.97;;;18.21;44.09
50364;BME280;36272;59.400;17.982;2023-04-23T10:23:41;100300.25;;;18.35;43.83
50364;BME280;36272;59.400;17.982;2023-04-23T10:28:49;100283.28;;;18.59;42.89
50364;BME280;36272;59.400;17.982;2023-04-23T10:33:55;100284.03;;;18.89;42.37
50364;BME280;36272;59.400;17.982;2023-04-23T10:38:57;100289.50;;;19.08;41.79
50364;BME280;36272;59.400;17.982;2023-04-23T10:44:04;100263.34;;;19.42;41.28
50364;BME280;36272;59.400;17.982;2023-04-23T10:49:11;100257.09;;;19.80;40.44
50364;BME280;36272;59.400;17.982;2023-04-23T10:54:18;100248.09;;;20.17;40.17
50364;BME280;36272;59.400;17.982;2023-04-23T10:59:20;100247.84;;;20.47;39.36
50364;BME280;36272;59.400;17.982;2023-04-23T11:04:30;100244.13;;;20.57;38.73
50364;BME280;36272;59.400;17.982;2023-04-23T11:15:24;100216.47;;;24.32;35.96
50364;BME280;36272;59.400;17.982;2023-04-23T11:20:26;100228.28;;;27.10;33.00
50364;BME280;36272;59.400;17.982;2023-04-23T11:25:55;100198.41;;;29.69;31.26
50364;BME280;36272;59.400;17.982;2023-04-23T11:31:05;100199.59;;;31.94;29.42
50364;BME280;36272;59.400;17.982;2023-04-23T11:36:07;100201.81;;;33.96;27.89
50364;BME280;36272;59.400;17.982;2023-04-23T11:41:21;100183.50;;;35.64;26.62
50364;BME280;36272;59.400;17.982;2023-04-23T11:46:23;100185.63;;;36.43;26.75
50364;BME280;36272;59.400;17.982;2023-04-23T11:51:26;100181.78;;;37.34;26.01
50364;BME280;36272;59.400;17.982;2023-04-23T11:56:31;100162.75;;;37.84;25.54
50364;BME280;36272;59.400;17.982;2023-04-23T12:01:46;100160.84;;;38.48;25.28
50364;BME280;36272;59.400;17.982;2023-04-23T12:06:51;100154.22;;;37.94;24.98
50364;BME280;36272;59.400;17.982;2023-04-23T12:11:55;100148.28;;;38.16;25.09
50364;BME280;36272;59.400;17.982;2023-04-23T12:17:08;100137.91;;;39.34;24.36
50364;BME280;36272;59.400;17.982;2023-04-23T12:22:10;100154.41;;;39.29;24.28
50364;BME280;36272;59.400;17.982;2023-04-23T12:27:14;100119.34;;;40.07;23.99
50364;BME280;36272;59.400;17.982;2023-04-23T12:32:23;100118.41;;;40.56;23.34
50364;BME280;36272;59.400;17.982;2023-04-23T12:37:26;100110.84;;;40.10;23.37
50364;BME280;36272;59.400;17.982;2023-04-23T12:42:28;100125.84;;;39.37;23.45
50364;BME280;36272;59.400;17.982;2023-04-23T12:47:33;100119.19;;;37.66;24.65
50364;BME280;36272;59.400;17.982;2023-04-23T12:52:35;100111.75;;;36.73;24.92
50364;BME280;36272;59.400;17.982;2023-04-23T12:57:37;100120.19;;;35.86;25.38
50364;BME280;36272;59.400;17.982;2023-04-23T13:02:47;100093.56;;;34.58;26.14
50364;BME280;36272;59.400;17.982;2023-04-23T13:07:49;100079.81;;;33.49;26.67
50364;BME280;36272;59.400;17.982;2023-04-23T13:12:54;100081.66;;;32.87;27.62
50364;BME280;36272;59.400;17.982;2023-04-23T13:17:57;100057.41;;;31.88;28.10
50364;BME280;36272;59.400;17.982;2023-04-23T13:23:01;100067.97;;;30.96;29.04
50364;BME280;36272;59.400;17.982;2023-04-23T13:28:09;100062.03;;;30.33;29.45
50364;BME280;36272;59.400;17.982;2023-04-23T13:33:21;100052.19;;;30.05;29.64
50364;BME280;36272;59.400;17.982;2023-04-23T13:38:31;100055.03;;;30.66;29.14
50364;BME280;36272;59.400;17.982;2023-04-23T13:49:13;100016.97;;;29.67;30.08
50364;BME280;36272;59.400;17.982;2023-04-23T13:54:15;100036.41;;;28.69;30.54
50364;BME280;36272;59.400;17.982;2023-04-23T13:59:17;100016.13;;;28.02;31.17
50364;BME280;36272;59.400;17.982;2023-04-23T14:04:22;100013.78;;;27.37;31.90
50364;BME280;36272;59.400;17.982;2023-04-23T14:09:26;100015.41;;;26.93;32.29
50364;BME280;36272;59.400;17.982;2023-04-23T14:14:30;100024.13;;;26.42;32.73
50364;BME280;36272;59.400;17.982;2023-04-23T14:19:32;100002.94;;;25.77;33.25
50364;BME280;36272;59.400;17.982;2023-04-23T14:24:44;99983.41;;;25.29;34.12
50364;BME280;36272;59.400;17.982;2023-04-23T14:34:56;99977.66;;;24.54;35.00
50364;BME280;36272;59.400;17.982;2023-04-23T14:40:03;99956.03;;;24.28;34.90
50364;BME280;36272;59.400;17.982;2023-04-23T14:45:06;99969.09;;;23.92;35.46
50364;BME280;36272;59.400;17.982;2023-04-23T14:50:09;99957.25;;;23.58;36.02
50364;BME280;36272;59.400;17.982;2023-04-23T14:55:11;99957.84;;;23.25;36.20
50364;BME280;36272;59.400;17.982;2023-04-23T15:00:16;99938.34;;;22.87;36.48
50364;BME280;36272;59.400;17.982;2023-04-23T15:05:18;99942.91;;;22.66;37.04
50364;BME280;36272;59.400;17.982;2023-04-23T15:10:20;99944.97;;;22.51;37.19
50364;BME280;36272;59.400;17.982;2023-04-23T15:20:56;99908.41;;;22.35;37.73
50364;BME280;36272;59.400;17.982;2023-04-23T15:26:00;99923.03;;;22.21;37.66
50364;BME280;36272;59.400;17.982;2023-04-23T15:31:04;99923.47;;;22.14;37.84
50364;BME280;36272;59.400;17.982;2023-04-23T15:36:09;99889.84;;;21.93;38.02
50364;BME280;36272;59.400;17.982;2023-04-23T15:41:11;99900.72;;;21.84;37.89
50364;BME280;36272;59.400;17.982;2023-04-23T15:46:13;99895.09;;;21.72;38.23
50364;BME280;36272;59.400;17.982;2023-04-23T15:51:15;99887.53;;;21.60;38.25
50364;BME280;36272;59.400;17.982;2023-04-23T15:56:17;99877.06;;;21.35;38.48
50364;BME280;36272;59.400;17.982;2023-04-23T16:01:19;99880.97;;;21.12;38.79
50364;BME280;36272;59.400;17.982;2023-04-23T16:06:35;99869.19;;;20.85;39.04
50364;BME280;36272;59.400;17.982;2023-04-23T16:11:37;99834.75;;;20.48;39.38
50364;BME280;36272;59.400;17.982;2023-04-23T16:16:41;99833.84;;;20.30;40.22
50364;BME280;36272;59.400;17.982;2023-04-23T16:21:48;99826.34;;;20.13;40.45
50364;BME280;36272;59.400;17.982;2023-04-23T16:26:53;99827.53;;;19.98;40.31
50364;BME280;36272;59.400;17.982;2023-04-23T16:38:08;99838.09;;;19.35;40.88
50364;BME280;36272;59.400;17.982;2023-04-23T16:43:18;99821.53;;;19.09;41.56
50364;BME280;36272;59.400;17.982;2023-04-23T16:48:19;99825.41;;;18.75;41.81
50364;BME280;36272;59.400;17.982;2023-04-23T16:53:25;99811.19;;;18.50;42.35
50364;BME280;36272;59.400;17.982;2023-04-23T16:58:33;99804.00;;;18.26;42.65
50364;BME280;36272;59.400;17.982;2023-04-23T17:03:36;99816.31;;;17.99;43.12
50364;BME280;36272;59.400;17.982;2023-04-23T17:08:44;99795.19;;;17.82;43.61
50364;BME280;36272;59.400;17.982;2023-04-23T17:13:54;99791.59;;;17.67;44.06
50364;BME280;36272;59.400;17.982;2023-04-23T17:18:56;99815.19;;;17.62;43.98
50364;BME280;36272;59.400;17.982;2023-04-23T17:24:01;99793.19;;;17.49;44.87
50364;BME280;36272;59.400;17.982;2023-04-23T17:29:03;99811.22;;;17.35;45.37
50364;BME280;36272;59.400;17.982;2023-04-23T17:34:07;99809.59;;;17.15;45.84
50364;BME280;36272;59.400;17.982;2023-04-23T17:39:12;99801.41;;;16.95;46.67
50364;BME280;36272;59.400;17.982;2023-04-23T17:44:14;99824.22;;;16.79;48.35
50364;BME280;36272;59.400;17.982;2023-04-23T17:49:15;99825.81;;;16.56;48.66
50364;BME280;36272;59.400;17.982;2023-04-23T17:54:19;99815.44;;;16.39;49.48
50364;BME280;36272;59.400;17.982;2023-04-23T17:59:21;99823.63;;;16.23;51.33
50364;BME280;36272;59.400;17.982;2023-04-23T18:04:28;99821.34;;;16.01;52.41
50364;BME280;36272;59.400;17.982;2023-04-23T18:09:33;99829.81;;;15.79;53.71
50364;BME280;36272;59.400;17.982;2023-04-23T18:14:55;99821.88;;;15.53;54.99
50364;BME280;36272;59.400;17.982;2023-04-23T18:20:02;99819.28;;;15.32;56.15
50364;BME280;36272;59.400;17.982;2023-04-23T18:25:07;99780.28;;;15.14;57.51
50364;BME280;36272;59.400;17.982;2023-04-23T18:30:13;99789.75;;;15.01;57.82
50364;BME280;36272;59.400;17.982;2023-04-23T18:35:18;99797.88;;;14.85;58.61
50364;BME280;36272;59.400;17.982;2023-04-23T18:40:23;99796.53;;;14.67;59.42
50364;BME280;36272;59.400;17.982;2023-04-23T18:45:24;99797.91;;;14.44;59.79
50364;BME280;36272;59.400;17.982;2023-04-23T18:55:43;99778.56;;;14.32;62.13
50364;BME280;36272;59.400;17.982;2023-04-23T19:00:51;99779.34;;;14.22;62.49
50364;BME280;36272;59.400;17.982;2023-04-23T19:05:53;99798.44;;;14.00;62.35
50364;BME280;36272;59.400;17.982;2023-04-23T19:11:04;99773.69;;;13.92;63.73
50364;BME280;36272;59.400;17.982;2023-04-23T19:16:08;99791.44;;;13.83;63.19
50364;BME280;36272;59.400;17.982;2023-04-23T19:21:43;99774.75;;;13.71;63.65
50364;BME280;36272;59.400;17.982;2023-04-23T19:27:05;99778.72;;;13.52;63.99
50364;BME280;36272;59.400;17.982;2023-04-23T19:37:52;99803.56;;;13.22;65.05
50364;BME280;36272;59.400;17.982;2023-04-23T19:43:12;99812.03;;;13.03;64.53
50364;BME280;36272;59.400;17.982;2023-04-23T19:48:57;99835.31;;;12.87;65.17
50364;BME280;36272;59.400;17.982;2023-04-23T19:54:00;99829.88;;;12.72;65.47
50364;BME280;36272;59.400;17.982;2023-04-23T19:59:02;99837.78;;;12.56;65.60
50364;BME280;36272;59.400;17.982;2023-04-23T20:04:04;99838.22;;;12.43;66.08
50364;BME280;36272;59.400;17.982;2023-04-23T20:09:12;99836.25;;;12.33;66.13
50364;BME280;36272;59.400;17.982;2023-04-23T20:14:21;99835.91;;;12.24;66.46
50364;BME280;36272;59.400;17.982;2023-04-23T20:19:23;99836.09;;;12.12;66.89
50364;BME280;36272;59.400;17.982;2023-04-23T20:24:28;99849.25;;;11.92;67.61
50364;BME280;36272;59.400;17.982;2023-04-23T20:29:30;99849.44;;;11.85;68.14
50364;BME280;36272;59.400;17.982;2023-04-23T20:34:32;99854.97;;;11.78;68.70
50364;BME280;36272;59.400;17.982;2023-04-23T20:39:36;99833.25;;;11.74;69.65
50364;BME280;36272;59.400;17.982;2023-04-23T20:44:41;99848.47;;;11.69;69.81
50364;BME280;36272;59.400;17.982;2023-04-23T20:49:43;99860.13;;;11.57;70.43
50364;BME280;36272;59.400;17.982;2023-04-23T20:54:49;99855.47;;;11.48;70.61
50364;BME280;36272;59.400;17.982;2023-04-23T20:59:51;99877.53;;;11.38;70.67
50364;BME280;36272;59.400;17.982;2023-04-23T21:04:53;99890.25;;;11.25;70.80
50364;BME280;36272;59.400;17.982;2023-04-23T21:09:54;99885.22;;;11.12;70.96
50364;BME280;36272;59.400;17.982;2023-04-23T21:14:56;99893.94;;;11.02;71.05
50364;BME280;36272;59.400;17.982;2023-04-23T21:20:01;99882.16;;;10.86;71.70
50364;BME280;36272;59.400;17.982;2023-04-23T21:25:03;99900.47;;;10.77;71.55
50364;BME280;36272;59.400;17.982;2023-04-23T21:30:11;99903.25;;;10.65;72.06
50364;BME280;36272;59.400;17.982;2023-04-23T21:35:16;99907.94;;;10.58;71.78
50364;BME280;36272;59.400;17.982;2023-04-23T21:40:18;99922.16;;;10.47;71.84
50364;BME280;36272;59.400;17.982;2023-04-23T21:45:20;99916.38;;;10.38;71.96
50364;BME280;36272;59.400;17.982;2023-04-23T21:50:23;99908.53;;;10.31;72.13
50364;BME280;36272;59.400;17.982;2023-04-23T21:55:26;99903.66;;;10.28;72.33
50364;BME280;36272;59.400;17.982;2023-04-23T22:00:28;99912.72;;;10.27;72.16
50364;BME280;36272;59.400;17.982;2023-04-23T22:05:30;99913.19;;;10.24;72.20
50364;BME280;36272;59.400;17.982;2023-04-23T22:10:32;99905.09;;;10.19;72.33
50364;BME280;36272;59.400;17.982;2023-04-23T22:15:35;99902.31;;;10.14;72.27
50364;BME280;36272;59.400;17.982;2023-04-23T22:20:37;99911.38;;;10.12;72.31
50364;BME280;36272;59.400;17.982;2023-04-23T22:25:39;99938.56;;;10.09;72.12
50364;BME280;36272;59.400;17.982;2023-04-23T22:30:41;99942.66;;;10.12;72.37
50364;BME280;36272;59.400;17.982;2023-04-23T22:35:43;99941.81;;;10.11;72.02
50364;BME280;36272;59.400;17.982;2023-04-23T22:40:44;99942.75;;;10.05;72.09
50364;BME280;36272;59.400;17.982;2023-04-23T22:45:48;99953.25;;;9.95;71.96
50364;BME280;36272;59.400;17.982;2023-04-23T22:50:50;99951.44;;;9.84;72.01
50364;BME280;36272;59.400;17.982;2023-04-23T22:55:52;99960.59;;;9.76;71.94
50364;BME280;36272;59.400;17.982;2023-04-23T23:00:54;99969.31;;;9.71;71.77
50364;BME280;36272;59.400;17.982;2023-04-23T23:05:56;99967.84;;;9.63;71.65
50364;BME280;36272;59.400;17.982;2023-04-23T23:11:03;99955.75;;;9.61;71.61
50364;BME280;36272;59.400;17.982;2023-04-23T23:16:05;99956.47;;;9.56;71.50
50364;BME280;36272;59.400;17.982;2023-04-23T23:21:08;99974.00;;;9.52;71.56
50364;BME280;36272;59.400;17.982;2023-04-23T23:26:09;99975.03;;;9.51;71.40
50364;BME280;36272;59.400;17.982;2023-04-23T23:31:11;99973.75;;;9.42;71.52
50364;BME280;36272;59.400;17.982;2023-04-23T23:36:13;99988.16;;;9.41;71.60
50364;BME280;36272;59.400;17.982;2023-04-23T23:41:15;99991.72;;;9.34;71.73
50364;BME280;36272;59.400;17.982;2023-04-23T23:46:17;99991.59;;;9.29;71.69
50364;BME280;36272;59.400;17.982;2023-04-23T23:51:19;100019.00;;;9.25;71.63
50364;BME280;36272;59.400;17.982;2023-04-23T23:56:20;100021.53;;;9.19;71.93
